Axel Batshuayi

Olheiro-Chefe - OH Leuven
23 Set 2027
Quinta-feira
Processo

Personalidade

Adaptabilidade (7) Ambição (8) Controvérsia (17) Lealdade (4) Pressão (7) Profissionalismo (6) Espírito Esportivo (5) Temperamento (13)

Perfil

Estilo de Treinamento Democrático
Licença Continental C
Determinação 11
Gestão de Pessoas 12
Motivação 9
Disciplina 12
Satisfação no Trabalho
100%
Fadiga
0%
Função Olheiro-Chefe
Salário 17.6K p/s
Contrato 14.03.2029

Desempenho

Comportamento Bom
Eficácia do Treinamento
35%
Desenvolvimento do Jogador
35%
Prevenção de Lesões
20%
Implementação Tática
25%

Eventos Recentes

Participou de uma reunião de recrutamento agora
Recomendou um alvo de transferência agora
Recomendou um alvo de transferência agora
Recomendou um alvo de transferência agora
Recomendou um alvo de transferência 7d atrás
Recomendou um alvo de transferência 7d atrás
Recomendou um alvo de transferência 7d atrás
Participou de uma reunião de recrutamento 7d atrás

Monitorando agora

143
Jogador Clube Status Habilidade Confiança Observado Última observação Último voto
Hosea Michael Remo Stars Ativo 97 / 86 40% 1 03.09.2027 -
Latrell Aken Groningen Ativo 115 / 117 40% 5 09.08.2027 -
Leonardo Mendicino Bari Negociando 112 / 131 40% 1 09.08.2027 -
Joel McGregor Swindon Town Ativo 91 / 96 40% 2 02.08.2027 -
Daniel Dennis Ikorodu City Ativo 90 / 98 40% 1 02.08.2027 -
Cheveyo Tsawa Club Brugge Ativo 110 / 123 40% 8 01.06.2027 -
Sascha Britschgi Padova Ativo 121 / 128 40% 4 01.06.2027 -
Dion Beljo Standard Liege Negociando 131 / 132 66% 1 01.06.2027 Aprovar
Khama Dolly Utrecht Negociando 123 / 124 67% 1 01.06.2027 Aprovar
Christ Inao Oulaï Fiorentina Ativo 131 / 145 40% 5 28.05.2027 -
Dylan Lawlor Cardiff City Ativo 123 / 120 40% 5 28.05.2027 Observar
Davide Bartesaghi AC Milan Ativo 129 / 135 40% 4 27.05.2027 -
Finley McAllister Grimsby Town Ativo 100 / 101 40% 2 27.05.2027 -
Christos Mouzakitis Hull City Ativo 127 / 132 40% 9 25.05.2027 -
Ibrahim Maza Bayer Leverkusen Ativo 136 / 144 40% 4 24.05.2027 -
Bernardo Lima Porto Ativo 99 / 111 40% 1 24.05.2027 -
Daniel Vernattus Metalist Ativo 83 / 91 40% 2 23.05.2027 -
Yussif Saidu Zaragoza Ativo 115 / 121 40% 1 23.05.2027 -
Gonçalo Oliveira Benfica Ativo 101 / 118 40% 4 21.05.2027 -
Jofre Torrents Ajax Ativo 114 / 127 40% 5 20.05.2027 -
Darryl Bakola Padova Ativo 107 / 116 40% 1 20.05.2027 -
Jan Bürger Gillingham Ativo 118 / 116 40% 6 18.05.2027 -
Matías Gómez Granada Ativo 121 / 114 40% 5 15.05.2027 -
Josh King Chelsea Ativo 138 / 152 40% 10 14.05.2027 -
Pietro Reggiori Pro Patria Ativo 84 / 95 40% 2 13.05.2027 -
Elie N'Gatta Sochaux Ativo 99 / 95 40% 3 11.05.2027 -
Karim Coulibaly RC Strasbourg Ativo 121 / 130 40% 6 10.05.2027 -
Ernie Weaver AFC Wimbledon Ativo 114 / 112 40% 5 09.05.2027 -
Adam Bakoune Ospitaletto Ativo 98 / 106 40% 1 08.05.2027 -
Keagan Tau Ajax Cape Town Ativo 88 / 106 40% 3 03.05.2027 -
Kazunari Kita Real Sociedad Ativo 93 / 106 40% 3 02.05.2027 -
Bohdan Budko AZ Ativo 110 / 118 40% 1 28.04.2027 -
Fuzy Taylor Medeama Ativo 82 / 83 40% 2 19.04.2027 -
Tiago Freitas Benfica Ativo 117 / 115 40% 3 15.04.2027 -
Leandro Martins Benfica Ativo 104 / 99 40% 2 06.04.2027 -
Percy Jali Free State Stars Ativo 101 / 101 40% 4 03.04.2027 -
James Dornelly Peterborough United Ativo 91 / 104 40% 2 03.04.2027 -
David Ozoh Derby County Ativo 116 / 125 40% 4 01.04.2027 -
Mark Verkuijl Ajax Ativo 117 / 114 40% 1 01.04.2027 -
Pape Diong Westerlo Ativo 108 / 119 40% 2 30.03.2027 -
Zane Albarus Cambridge United Ativo 97 / 104 40% 2 25.03.2027 -
Thijs Kraaijeveld Feyenoord Ativo 121 / 126 40% 2 22.03.2027 -
Arsene Mekila Gazelle Garoua Ativo 90 / 89 40% 2 22.03.2027 -
Richard Noël AS Nancy Ativo 86 / 101 40% 1 18.03.2027 -
Mohamed Moussa Koïta Djoliba Ativo 103 / 107 40% 2 17.03.2027 -
Martim Cunha Porto Ativo 90 / 109 40% 1 14.03.2027 -
Frédérique Dawaï Cotonsport Garoua Ativo 82 / 93 40% 1 13.03.2027 -
Ronwen Phiri Platinum Stars Ativo 105 / 109 40% 3 12.03.2027 -
Cathal Heffernan Harrogate Town Ativo 92 / 84 40% 1 06.03.2027 -
Caleb Yirenkyi Coventry City Ativo 139 / 132 40% 2 05.03.2027 -
Keagan Phiri Platinum Stars Ativo 90 / 108 40% 1 23.02.2027 -
Josh Smith Accrington Stanley Ativo 86 / 89 40% 2 20.02.2027 -
Simphiwe Selepe Orlando Pirates Ativo 120 / 122 40% 1 12.02.2027 -
Edwin Asamoah Berekum Chelsea Ativo 76 / 93 40% 1 12.02.2027 -
Massien Ghaddari Utrecht Ativo 100 / 106 40% 1 10.02.2027 -
Daan Dierckx Standard Liege Ativo 119 / 120 51% 1 25.01.2027 -
Isaiah Jones Luton Town Ativo 135 / 128 40% 2 18.01.2027 -
Cian Ashford Cardiff City Ativo 129 / 120 40% 1 18.01.2027 -
Marcelo Allende Mamelodi Sundowns Ativo 122 / 134 40% 1 12.01.2027 -
Jason Knight Bristol City Ativo 124 / 127 40% 1 12.01.2027 -
Owen Lunt Crewe Alexandra Ativo 87 / 106 40% 1 03.01.2027 -
Andreas Trimmel Red Bull Salzburg Ativo 131 / 131 60% 1 01.01.2027 Aprovar
Amar Memić Casa Pia Negociando 127 / 128 62% 1 01.01.2027 Aprovar
Themba Ngcobo SuperSport United Ativo 116 / 116 40% 4 31.12.2026 -
Myron van Brederode KV Mechelen Ativo 124 / 129 40% 3 31.12.2026 -
Tommy Conway Middlesbrough Ativo 119 / 128 40% 5 30.12.2026 -
Aune Heggebø West Bromwich Albion Ativo 116 / 131 40% 2 29.12.2026 -
Toni Fruk KV Mechelen Ativo 124 / 137 40% 1 28.12.2026 -
Robert Mizo Ashanti Gold Ativo 99 / 100 40% 1 27.12.2026 -
Yousef Salech Cardiff City Ativo 124 / 128 40% 3 25.12.2026 -
Morgan Whittaker Middlesbrough Ativo 141 / 128 40% 3 25.12.2026 -
Tristan Degreef Anderlecht Perdido 133 / 122 40% 3 24.12.2026 -
Isa Sakamoto Westerlo Ativo 119 / 118 40% 2 24.12.2026 -
Rafiu Durosinmi Racing Genk Ativo 126 / 138 40% 5 23.12.2026 -
Giacomo Raspadori Atalanta Ativo 136 / 138 40% 2 23.12.2026 -
Ruben van Bommel Ferencvaros Ativo 117 / 142 40% 3 19.12.2026 -
Razvan Balasa Crvena Zvezda Ativo 155 / 140 40% 4 19.12.2026 -
Mattia Felici Cagliari Ativo 138 / 136 40% 1 16.12.2026 -
Jules Armand Kooh Dynamo Douala Ativo 106 / 92 40% 1 16.12.2026 -
Iwan Morgan Grimsby Town Ativo 98 / 119 40% 1 15.12.2026 -
Matisse Samoise KAA Gent Ativo 133 / 121 40% 1 15.12.2026 -
Mathias Jørgensen Blackburn Rovers Ativo 131 / 118 40% 1 14.12.2026 -
Derensili Sanches Fernandes Huddersfield Town Ativo 123 / 116 40% 1 14.12.2026 -
Richard Koné Queens Park Rangers Ativo 122 / 129 40% 1 13.12.2026 -
Etiosa Ighodaro Kaizer Chiefs Ativo 118 / 112 40% 3 12.12.2026 -
Adnan Courtois KV Oostende Ativo 152 / 127 40% 4 10.12.2026 -
Senny Mayulu Paris Saint-Germain Ativo 133 / 153 40% 2 09.12.2026 -
Tshepang Moremi Orlando Pirates Ativo 104 / 113 40% 2 09.12.2026 -
Tyreece Campbell Charlton Athletic Ativo 125 / 126 40% 1 09.12.2026 -
Kwame Poku Queens Park Rangers Ativo 110 / 128 40% 1 04.12.2026 -
Mees Rijks Bristol Rovers Ativo 101 / 105 40% 1 02.12.2026 -
Ibrahim Cissoko Zwolle Ativo 123 / 120 40% 3 01.12.2026 -
Tyrese Campbell Sheffield United Ativo 135 / 132 40% 1 01.12.2026 -
Sorba Thomas Stoke City Ativo 140 / 131 40% 1 01.12.2026 -
David Kalokoh Ajax Ativo 128 / 124 40% 1 30.11.2026 -
Maksim Kireev KV Mechelen Ativo 118 / 130 40% 1 30.11.2026 -
Jack Rudoni Coventry City Ativo 143 / 139 40% 1 28.11.2026 -
Tom Cannon Sheffield United Ativo 137 / 131 40% 2 26.11.2026 -
Ilyas Ansah Hull City Ativo 131 / 140 40% 2 25.11.2026 -
Bojan Radulović Huddersfield Town Ativo 113 / 116 40% 1 25.11.2026 -
Everton Bala Levski Ativo 116 / 128 40% 1 24.11.2026 -
Zeki Amdouni Burnley Ativo 129 / 130 40% 1 23.11.2026 -
Marezi Portsmouth Ativo 106 / 128 40% 1 21.11.2026 -
Seedy Jatta Sturm Graz Ativo 106 / 120 40% 1 20.11.2026 -
Matt O'Riley Brighton Ativo 149 / 147 40% 1 20.11.2026 -
Thomas Claes Zulte Waregem Ativo 104 / 113 40% 1 20.11.2026 -
Georginio Rutter Brighton Ativo 148 / 146 40% 3 16.11.2026 -
Giovanni Haag Cardiff City Ativo 128 / 113 40% 1 16.11.2026 -
Naoufal Bannis Vitesse Ativo 116 / 106 40% 1 12.11.2026 -
Jeppe Erenbjerg Racing Genk Ativo 125 / 118 40% 1 10.11.2026 -
Joe Gelhardt Hull City Ativo 119 / 131 40% 1 08.11.2026 -
Aimé Omgba KAA Gent Ativo 117 / 118 40% 1 07.11.2026 -
Alexander Díaz Deportivo Riestra Ativo 125 / 122 40% 2 04.11.2026 -
Dejan Joveljić Seattle Sounders Ativo 119 / 128 40% 1 03.11.2026 -
Rilind Nivokazi Sion Ativo 125 / 122 40% 1 02.11.2026 -
Cameron Archer Southampton Ativo 130 / 129 40% 1 28.10.2026 -
Mandla Mahlangu Ajax Cape Town Ativo 96 / 99 40% 1 28.10.2026 -
Erison Kawasaki Frontale Ativo 151 / 124 40% 1 24.10.2026 -
Manfred Ugalde Spartak Moscow Ativo 112 / 127 40% 1 22.10.2026 -
Santiago Sala Güemes Ativo 130 / 114 40% 1 22.10.2026 -
Louis Munteanu DC United Ativo 108 / 120 40% 2 17.10.2026 -
Yannick Vanaken KV Oostende Ativo 137 / 124 40% 1 11.10.2026 -
Jakob Napoleon Romsaas Charleroi Ativo 114 / 131 40% 1 10.10.2026 -
Leonardo Campana New England Revolution Ativo 110 / 135 40% 1 10.10.2026 -
Tomás Chancalay Minnesota United FC Ativo 115 / 131 40% 2 06.10.2026 -
Agustín Módica Gimnasia y Esgrima Ativo 114 / 129 40% 1 05.10.2026 -
Félix Lemaréchal Club Brugge Ativo 138 / 137 40% 2 19.09.2026 -
João Gomes Aston Villa Ativo 145 / 134 40% 1 19.09.2026 -
Ted Ku-DiPietro Colorado Rapids Ativo 116 / 121 40% 1 16.09.2026 -
Thomas Van Den Keybus Westerlo Ativo 111 / 111 40% 1 14.09.2026 -
Mardochée Nzita Charleroi Ativo 110 / 120 40% 1 14.09.2026 -
Kelvin Yeboah Minnesota United FC Ativo 148 / 131 40% 2 13.09.2026 -
Daan Heymans Racing Genk Ativo 115 / 121 40% 1 13.09.2026 -
Adriano Bertaccini Anderlecht Ativo 121 / 124 40% 1 12.09.2026 -
Bénie Traoré New York City Ativo 115 / 114 40% 1 12.09.2026 -
Juan Manuel Sanabria Real Salt Lake Ativo 123 / 113 40% 1 10.09.2026 -
Thomas van den Belt Twente Ativo 122 / 114 40% 1 10.09.2026 -
David Da Costa Portland Timbers Ativo 122 / 136 40% 1 09.09.2026 -
Riqui Puig LA Galaxy Ativo 144 / 128 40% 1 08.09.2026 -
Rowan Besselink De Graafschap Ativo 98 / 101 40% 1 25.08.2026 -
Philippe Ndinga Philadelphia Union Ativo 120 / 132 40% 1 25.08.2026 -
Ethan Butera Ajax Ativo 104 / 112 40% 1 17.08.2026 -
Amine Lachkar Willem II Ativo 119 / 110 40% 1 01.08.2026 -